RUK4CF GMTT-EGCC
Flight info
| Callsign | RUK4CF |
|---|---|
| Flight time | 2h 43m |
| Altitude | 18000 |
| Route | LAMAD M143 GALTO/N0439F360 N869 BLN DCT MORAL DCT BEXID DCT VTB DCT SIE/N0434F380 DCT XERMA DCT ARLUN DCT BUGIX DCT UNGAS DCT DELOG DCT RUSIB DCT NOZHU/N0433F370 DCT SHIRI DCT TOJAQ DCT EPACE DCT ACCOP/N0361F240 P16 AXCIS |
| Aircraft | B738/M-SDE3FGILRWY/SB1 |
Departure
| Time | 2026-04-23 21:50 |
|---|---|
| Airport | Tangier Ibn Battuta Airport (GMTT) |
Arrival
| Time | 2026-04-24 00:33 |
|---|---|
| Airport | Manchester Airport (EGCC) |
| Time | Latitude | Longitude | Altitude | Speed | Heading |
|---|---|---|---|---|---|
| 2026-04-23 21:15 | 35.72526 | -5.91193 | 59 ft | 0 kts | 355° |
| 2026-04-23 21:41 | 35.72505 | -5.91190 | 44 ft | 4 kts | 349° |
| 2026-04-23 21:41 | 35.72479 | -5.91182 | 53 ft | 4 kts | 336° |
| 2026-04-23 21:41 | 35.72457 | -5.91165 | 56 ft | 4 kts | 306° |
| 2026-04-23 21:41 | 35.72450 | -5.91144 | 57 ft | 0 kts | 265° |
| 2026-04-23 21:44 | 35.72450 | -5.91146 | 57 ft | 1 kts | 265° |
| 2026-04-23 21:44 | 35.72448 | -5.91176 | 53 ft | 7 kts | 265° |
| 2026-04-23 21:44 | 35.72442 | -5.91264 | 59 ft | 13 kts | 265° |
| 2026-04-23 21:45 | 35.72436 | -5.91374 | 59 ft | 13 kts | 266° |
| 2026-04-23 21:45 | 35.72429 | -5.91481 | 57 ft | 12 kts | 266° |
| 2026-04-23 21:45 | 35.72431 | -5.91585 | 56 ft | 12 kts | 285° |
| 2026-04-23 21:45 | 35.72484 | -5.91671 | 56 ft | 16 kts | 329° |
| 2026-04-23 21:46 | 35.72616 | -5.91696 | 59 ft | 21 kts | 356° |
| 2026-04-23 21:46 | 35.72758 | -5.91709 | 59 ft | 20 kts | 355° |
| 2026-04-23 21:46 | 35.72895 | -5.91722 | 59 ft | 19 kts | 359° |
| 2026-04-23 21:46 | 35.72940 | -5.91652 | 57 ft | 9 kts | 96° |
| 2026-04-23 21:47 | 35.72928 | -5.91531 | 51 ft | 19 kts | 96° |
| 2026-04-23 21:47 | 35.72910 | -5.91334 | 59 ft | 26 kts | 96° |
| 2026-04-23 21:47 | 35.72889 | -5.91112 | 56 ft | 25 kts | 96° |
| 2026-04-23 21:47 | 35.72870 | -5.90902 | 54 ft | 24 kts | 96° |
| 2026-04-23 21:48 | 35.72851 | -5.90706 | 57 ft | 23 kts | 97° |
| 2026-04-23 21:48 | 35.72834 | -5.90516 | 58 ft | 22 kts | 96° |
| 2026-04-23 21:48 | 35.72816 | -5.90332 | 56 ft | 21 kts | 95° |
| 2026-04-23 21:48 | 35.72884 | -5.90193 | 55 ft | 21 kts | 13° |
| 2026-04-23 21:49 | 35.72991 | -5.90279 | 51 ft | 20 kts | 284° |
| 2026-04-23 21:49 | 35.73012 | -5.90485 | 57 ft | 40 kts | 276° |
| 2026-04-23 21:49 | 35.73071 | -5.91118 | 59 ft | 107 kts | 277° |
| 2026-04-23 21:49 | 35.73178 | -5.92273 | 86 ft | 160 kts | 278° |
| 2026-04-23 21:50 | 35.73316 | -5.93659 | 721 ft | 160 kts | 280° |
| 2026-04-23 21:50 | 35.73479 | -5.95025 | 1426 ft | 167 kts | 280° |
| 2026-04-23 21:50 | 35.73671 | -5.96561 | 1680 ft | 197 kts | 279° |
| 2026-04-23 21:50 | 35.73899 | -5.98324 | 1954 ft | 218 kts | 279° |
| 2026-04-23 21:51 | 35.74104 | -6.00236 | 2354 ft | 232 kts | 276° |
| 2026-04-23 21:51 | 35.73986 | -6.02237 | 2955 ft | 239 kts | 253° |
| 2026-04-23 21:51 | 35.73250 | -6.04061 | 3692 ft | 238 kts | 230° |
| 2026-04-23 21:51 | 35.72035 | -6.05374 | 4404 ft | 237 kts | 207° |
| 2026-04-23 21:52 | 35.70451 | -6.06005 | 5110 ft | 237 kts | 183° |
| 2026-04-23 21:52 | 35.68816 | -6.05807 | 5783 ft | 237 kts | 160° |
| 2026-04-23 21:52 | 35.67358 | -6.04887 | 6474 ft | 238 kts | 140° |
| 2026-04-23 21:52 | 35.66259 | -6.03353 | 7042 ft | 243 kts | 120° |
| 2026-04-23 21:53 | 35.65709 | -6.01385 | 7691 ft | 247 kts | 96° |
| 2026-04-23 21:53 | 35.65867 | -5.99263 | 8283 ft | 255 kts | 73° |
| 2026-04-23 21:53 | 35.66474 | -5.97214 | 8878 ft | 261 kts | 70° |
| 2026-04-23 21:53 | 35.67184 | -5.95099 | 9462 ft | 268 kts | 68° |
| 2026-04-23 21:54 | 35.67964 | -5.93000 | 10066 ft | 273 kts | 69° |
| 2026-04-23 21:54 | 35.68709 | -5.90836 | 10657 ft | 275 kts | 70° |
| 2026-04-23 21:54 | 35.69436 | -5.88650 | 11288 ft | 278 kts | 70° |
| 2026-04-23 21:54 | 35.70165 | -5.86435 | 11918 ft | 280 kts | 71° |
| 2026-04-23 21:55 | 35.70880 | -5.84236 | 12545 ft | 283 kts | 71° |
| 2026-04-23 21:55 | 35.71629 | -5.81945 | 13158 ft | 288 kts | 71° |
| 2026-04-23 21:55 | 35.72383 | -5.79646 | 13763 ft | 293 kts | 71° |
| 2026-04-23 21:55 | 35.73162 | -5.77268 | 13950 ft | 315 kts | 71° |
| 2026-04-23 21:56 | 35.74009 | -5.74682 | 14123 ft | 337 kts | 71° |
| 2026-04-23 21:56 | 35.74911 | -5.71929 | 14281 ft | 358 kts | 70° |
| 2026-04-23 21:56 | 35.75864 | -5.69009 | 14508 ft | 375 kts | 71° |
| 2026-04-23 21:56 | 35.76901 | -5.66030 | 15031 ft | 383 kts | 62° |
| 2026-04-23 21:57 | 35.78504 | -5.63385 | 15697 ft | 388 kts | 46° |
| 2026-04-23 21:57 | 35.80450 | -5.61076 | 16410 ft | 390 kts | 44° |
| 2026-04-23 21:57 | 35.82437 | -5.58763 | 17016 ft | 395 kts | 44° |
| 2026-04-23 21:57 | 35.84375 | -5.56498 | 17610 ft | 399 kts | 45° |
| 2026-04-23 21:58 | 35.86385 | -5.54124 | 18247 ft | 402 kts | 45° |
| 2026-04-23 21:58 | 35.87749 | -5.52500 | 18637 ft | 404 kts | 45° |
| 2026-04-23 21:58 | 35.89741 | -5.50110 | 19187 ft | 406 kts | 46° |
| 2026-04-23 21:58 | 35.91766 | -5.47667 | 19740 ft | 409 kts | 46° |
| 2026-04-23 21:59 | 35.93807 | -5.45196 | 20290 ft | 412 kts | 46° |
| 2026-04-23 21:59 | 35.95856 | -5.42708 | 20829 ft | 415 kts | 46° |
| 2026-04-23 21:59 | 35.97920 | -5.40197 | 21361 ft | 418 kts | 46° |
| 2026-04-23 22:00 | 36.02089 | -5.35120 | 22417 ft | 424 kts | 46° |
| 2026-04-23 22:00 | 36.04194 | -5.32552 | 22905 ft | 427 kts | 46° |
| 2026-04-23 22:00 | 36.06307 | -5.29951 | 23390 ft | 430 kts | 45° |
| 2026-04-23 22:00 | 36.08472 | -5.27378 | 23829 ft | 434 kts | 45° |
| 2026-04-23 22:01 | 36.10636 | -5.24764 | 24254 ft | 436 kts | 46° |
| 2026-04-23 22:01 | 36.12791 | -5.22120 | 24694 ft | 437 kts | 46° |
| 2026-04-23 22:01 | 36.14950 | -5.19457 | 25146 ft | 438 kts | 46° |
| 2026-04-23 22:01 | 36.17111 | -5.16790 | 25583 ft | 440 kts | 46° |
| 2026-04-23 22:02 | 36.19282 | -5.14115 | 25965 ft | 442 kts | 46° |
| 2026-04-23 22:02 | 36.21473 | -5.11418 | 26333 ft | 445 kts | 46° |
| 2026-04-23 22:02 | 36.23678 | -5.08707 | 26699 ft | 448 kts | 46° |
| 2026-04-23 22:02 | 36.25893 | -5.05983 | 27080 ft | 450 kts | 46° |
| 2026-04-23 22:03 | 36.28119 | -5.03245 | 27449 ft | 452 kts | 46° |
| 2026-04-23 22:03 | 36.30354 | -5.00494 | 27815 ft | 454 kts | 46° |
| 2026-04-23 22:03 | 36.32600 | -4.97728 | 28164 ft | 456 kts | 46° |
| 2026-04-23 22:03 | 36.34852 | -4.94950 | 28480 ft | 458 kts | 46° |
| 2026-04-23 22:04 | 36.37114 | -4.92142 | 28808 ft | 461 kts | 47° |
| 2026-04-23 22:04 | 36.39384 | -4.89312 | 29101 ft | 464 kts | 45° |
| 2026-04-23 22:04 | 36.41701 | -4.86516 | 29398 ft | 467 kts | 46° |
| 2026-04-23 22:04 | 36.44015 | -4.83670 | 29684 ft | 469 kts | 46° |
| 2026-04-23 22:05 | 36.46327 | -4.80799 | 29998 ft | 471 kts | 46° |
| 2026-04-23 22:05 | 36.48647 | -4.77909 | 30275 ft | 473 kts | 46° |
| 2026-04-23 22:05 | 36.50979 | -4.75004 | 30525 ft | 475 kts | 46° |
| 2026-04-23 22:05 | 36.53319 | -4.72090 | 30771 ft | 477 kts | 46° |
| 2026-04-23 22:06 | 36.55669 | -4.69165 | 31005 ft | 479 kts | 46° |
| 2026-04-23 22:06 | 36.58030 | -4.66227 | 31235 ft | 481 kts | 46° |
| 2026-04-23 22:06 | 36.60397 | -4.63278 | 31522 ft | 482 kts | 46° |
| 2026-04-23 22:06 | 36.62763 | -4.60331 | 31875 ft | 480 kts | 46° |
| 2026-04-23 22:07 | 36.65120 | -4.57392 | 32200 ft | 479 kts | 46° |
| 2026-04-23 22:07 | 36.67470 | -4.54457 | 32528 ft | 478 kts | 47° |
| 2026-04-23 22:07 | 36.69811 | -4.51530 | 32906 ft | 476 kts | 47° |
| 2026-04-23 22:07 | 36.72144 | -4.48610 | 33206 ft | 476 kts | 47° |
| 2026-04-23 22:08 | 36.74481 | -4.45683 | 33465 ft | 476 kts | 47° |
| 2026-04-23 22:08 | 36.76820 | -4.42752 | 33744 ft | 476 kts | 47° |
| 2026-04-23 22:08 | 36.79157 | -4.39836 | 34051 ft | 476 kts | 45° |
| 2026-04-23 22:08 | 36.81717 | -4.37215 | 34313 ft | 477 kts | 35° |
| 2026-04-23 22:09 | 36.84568 | -4.35097 | 34549 ft | 477 kts | 25° |
| 2026-04-23 22:09 | 36.87596 | -4.33413 | 34793 ft | 476 kts | 23° |
| 2026-04-23 22:09 | 36.90645 | -4.31792 | 35032 ft | 476 kts | 23° |
| 2026-04-23 22:09 | 36.93690 | -4.30185 | 35314 ft | 474 kts | 23° |
| 2026-04-23 22:10 | 36.96720 | -4.28576 | 35639 ft | 472 kts | 23° |
| 2026-04-23 22:10 | 36.99732 | -4.26957 | 35856 ft | 471 kts | 23° |
| 2026-04-23 22:10 | 37.02700 | -4.25345 | 36052 ft | 472 kts | 24° |
| 2026-04-23 22:10 | 37.05745 | -4.23680 | 36245 ft | 472 kts | 24° |
| 2026-04-23 22:11 | 37.08708 | -4.22052 | 36484 ft | 471 kts | 24° |
| 2026-04-23 22:11 | 37.11701 | -4.20403 | 36732 ft | 469 kts | 23° |
| 2026-04-23 22:11 | 37.14686 | -4.18758 | 36939 ft | 469 kts | 23° |
| 2026-04-23 22:11 | 37.17666 | -4.17113 | 37157 ft | 468 kts | 24° |
| 2026-04-23 22:12 | 37.20644 | -4.15470 | 37400 ft | 467 kts | 23° |
| 2026-04-23 22:12 | 37.23613 | -4.13830 | 37623 ft | 466 kts | 23° |
| 2026-04-23 22:12 | 37.26581 | -4.12190 | 37781 ft | 466 kts | 23° |
| 2026-04-23 22:12 | 37.29546 | -4.10551 | 37958 ft | 466 kts | 23° |
| 2026-04-23 22:13 | 37.32510 | -4.08910 | 38059 ft | 467 kts | 23° |
| 2026-04-23 22:13 | 37.35488 | -4.07261 | 38056 ft | 468 kts | 23° |
| 2026-04-23 22:13 | 37.41436 | -4.03962 | 38075 ft | 466 kts | 23° |
| 2026-04-23 22:14 | 37.47344 | -4.00679 | 38053 ft | 463 kts | 23° |
| 2026-04-23 22:14 | 37.53219 | -3.97409 | 38055 ft | 460 kts | 23° |
| 2026-04-23 22:15 | 37.59066 | -3.94149 | 38060 ft | 459 kts | 23° |
| 2026-04-23 22:15 | 37.64908 | -3.90886 | 38061 ft | 459 kts | 24° |
| 2026-04-23 22:16 | 37.70755 | -3.87615 | 38057 ft | 460 kts | 24° |
| 2026-04-23 22:16 | 37.76620 | -3.84327 | 38051 ft | 462 kts | 24° |
| 2026-04-23 22:17 | 37.82254 | -3.81164 | 38036 ft | 463 kts | 24° |
| 2026-04-23 22:17 | 37.88235 | -3.77800 | 38050 ft | 465 kts | 24° |
| 2026-04-23 22:18 | 37.94154 | -3.74465 | 38050 ft | 466 kts | 24° |
| 2026-04-23 22:18 | 38.00095 | -3.71112 | 38045 ft | 467 kts | 24° |
| 2026-04-23 22:19 | 38.05999 | -3.67773 | 38033 ft | 468 kts | 24° |
| 2026-04-23 22:19 | 38.11987 | -3.64382 | 38042 ft | 468 kts | 24° |
| 2026-04-23 22:20 | 38.18202 | -3.62069 | 38036 ft | 466 kts | 5° |
| 2026-04-23 22:20 | 38.24661 | -3.61452 | 38040 ft | 465 kts | 2° |
| 2026-04-23 22:21 | 38.31123 | -3.60924 | 38036 ft | 465 kts | 2° |
| 2026-04-23 22:21 | 38.37581 | -3.60337 | 38037 ft | 465 kts | 3° |
| 2026-04-23 22:22 | 38.44032 | -3.59713 | 38027 ft | 465 kts | 3° |
| 2026-04-23 22:22 | 38.50490 | -3.59078 | 38026 ft | 465 kts | 3° |
| 2026-04-23 22:23 | 38.56942 | -3.58444 | 38029 ft | 465 kts | 3° |
| 2026-04-23 22:23 | 38.63390 | -3.57812 | 38011 ft | 465 kts | 3° |
| 2026-04-23 22:24 | 38.69844 | -3.57178 | 38027 ft | 465 kts | 3° |
| 2026-04-23 22:24 | 38.76293 | -3.56543 | 38032 ft | 465 kts | 3° |
| 2026-04-23 22:25 | 38.82747 | -3.55907 | 38022 ft | 465 kts | 3° |
| 2026-04-23 22:25 | 38.89209 | -3.55269 | 38011 ft | 466 kts | 3° |
| 2026-04-23 22:26 | 38.95676 | -3.54629 | 38014 ft | 466 kts | 3° |
| 2026-04-23 22:26 | 39.02148 | -3.53988 | 38014 ft | 466 kts | 3° |
| 2026-04-23 22:27 | 39.08618 | -3.53350 | 38013 ft | 466 kts | 4° |
| 2026-04-23 22:27 | 39.15088 | -3.52712 | 38016 ft | 467 kts | 4° |
| 2026-04-23 22:28 | 39.21568 | -3.52070 | 38017 ft | 467 kts | 4° |
| 2026-04-23 22:28 | 39.28042 | -3.51428 | 38026 ft | 467 kts | 4° |
| 2026-04-23 22:29 | 39.34514 | -3.50785 | 38042 ft | 467 kts | 3° |
| 2026-04-23 22:29 | 39.40991 | -3.50140 | 38033 ft | 466 kts | 3° |
| 2026-04-23 22:30 | 39.47455 | -3.49495 | 38041 ft | 466 kts | 3° |
| 2026-04-23 22:30 | 39.53916 | -3.48849 | 38044 ft | 465 kts | 4° |
| 2026-04-23 22:31 | 39.60366 | -3.48202 | 38043 ft | 465 kts | 4° |
| 2026-04-23 22:31 | 39.66803 | -3.47549 | 38043 ft | 464 kts | 4° |
| 2026-04-23 22:32 | 39.73230 | -3.46895 | 38043 ft | 463 kts | 4° |
| 2026-04-23 22:32 | 39.79656 | -3.46411 | 38034 ft | 462 kts | 356° |
| 2026-04-23 22:33 | 39.86048 | -3.47007 | 38045 ft | 460 kts | 353° |
| 2026-04-23 22:33 | 39.92422 | -3.47773 | 38048 ft | 460 kts | 353° |
| 2026-04-23 22:34 | 39.98807 | -3.48485 | 38054 ft | 460 kts | 354° |
| 2026-04-23 22:34 | 40.05196 | -3.49148 | 38046 ft | 461 kts | 354° |
| 2026-04-23 22:35 | 40.11555 | -3.49792 | 38054 ft | 462 kts | 354° |
| 2026-04-23 22:35 | 40.17970 | -3.50442 | 38049 ft | 463 kts | 354° |
| 2026-04-23 22:36 | 40.24398 | -3.51097 | 38042 ft | 464 kts | 354° |
| 2026-04-23 22:36 | 40.30885 | -3.51760 | 38049 ft | 465 kts | 354° |
| 2026-04-23 22:37 | 40.37340 | -3.52421 | 38080 ft | 466 kts | 354° |
| 2026-04-23 22:37 | 40.43764 | -3.53080 | 38079 ft | 467 kts | 353° |
| 2026-04-23 22:38 | 40.50246 | -3.53747 | 38084 ft | 467 kts | 353° |
| 2026-04-23 22:38 | 40.56740 | -3.54417 | 38053 ft | 469 kts | 353° |
| 2026-04-23 22:39 | 40.63247 | -3.55088 | 38051 ft | 469 kts | 353° |
| 2026-04-23 22:39 | 40.69766 | -3.55763 | 38051 ft | 470 kts | 353° |
| 2026-04-23 22:40 | 40.76287 | -3.56439 | 38058 ft | 470 kts | 353° |
| 2026-04-23 22:41 | 40.86070 | -3.57455 | 38074 ft | 470 kts | 353° |
| 2026-04-23 22:41 | 40.92595 | -3.58134 | 38059 ft | 470 kts | 353° |
| 2026-04-23 22:42 | 40.98052 | -3.58704 | 38056 ft | 469 kts | 353° |
| 2026-04-23 22:42 | 41.04554 | -3.59384 | 38045 ft | 468 kts | 353° |
| 2026-04-23 22:43 | 41.11036 | -3.60063 | 38062 ft | 467 kts | 354° |
| 2026-04-23 22:43 | 41.17466 | -3.60653 | 38039 ft | 466 kts | 356° |
| 2026-04-23 22:44 | 41.23940 | -3.60810 | 38038 ft | 464 kts | 358° |
| 2026-04-23 22:44 | 41.30389 | -3.60902 | 38031 ft | 463 kts | 358° |
| 2026-04-23 22:45 | 41.36809 | -3.61046 | 38033 ft | 461 kts | 358° |
| 2026-04-23 22:45 | 41.43216 | -3.61214 | 38025 ft | 460 kts | 358° |
| 2026-04-23 22:46 | 41.49617 | -3.61380 | 38027 ft | 459 kts | 358° |
| 2026-04-23 22:46 | 41.56001 | -3.61357 | 38019 ft | 459 kts | 0° |
| 2026-04-23 22:47 | 41.62391 | -3.61356 | 38030 ft | 459 kts | 359° |
| 2026-04-23 22:47 | 41.68789 | -3.61393 | 38031 ft | 460 kts | 359° |
| 2026-04-23 22:48 | 41.75207 | -3.61403 | 38023 ft | 462 kts | 360° |
| 2026-04-23 22:48 | 41.81646 | -3.61401 | 38030 ft | 464 kts | 360° |
| 2026-04-23 22:49 | 41.88110 | -3.61400 | 38032 ft | 465 kts | 360° |
| 2026-04-23 22:49 | 41.94596 | -3.61400 | 38030 ft | 466 kts | 360° |
| 2026-04-23 22:50 | 42.01092 | -3.61400 | 38029 ft | 467 kts | 360° |
| 2026-04-23 22:50 | 42.07592 | -3.61607 | 38031 ft | 467 kts | 356° |
| 2026-04-23 22:51 | 42.14089 | -3.62094 | 38032 ft | 467 kts | 356° |
| 2026-04-23 22:51 | 42.20578 | -3.62547 | 38058 ft | 467 kts | 357° |
| 2026-04-23 22:52 | 42.27057 | -3.62954 | 38078 ft | 465 kts | 357° |
| 2026-04-23 22:52 | 42.33519 | -3.63356 | 38068 ft | 464 kts | 357° |
| 2026-04-23 22:53 | 42.39927 | -3.64163 | 38081 ft | 462 kts | 352° |
| 2026-04-23 22:53 | 42.46278 | -3.65480 | 38087 ft | 461 kts | 349° |
| 2026-04-23 22:54 | 42.52608 | -3.66871 | 38058 ft | 461 kts | 350° |
| 2026-04-23 22:54 | 42.58952 | -3.68147 | 38057 ft | 461 kts | 350° |
| 2026-04-23 22:55 | 42.65307 | -3.69415 | 38060 ft | 462 kts | 350° |
| 2026-04-23 22:55 | 42.71687 | -3.70653 | 38049 ft | 464 kts | 351° |
| 2026-04-23 22:56 | 42.78090 | -3.71734 | 38043 ft | 466 kts | 351° |
| 2026-04-23 22:56 | 42.84544 | -3.72803 | 38037 ft | 467 kts | 351° |
| 2026-04-23 22:57 | 42.91001 | -3.73893 | 38029 ft | 468 kts | 351° |
| 2026-04-23 22:57 | 42.97477 | -3.75002 | 38031 ft | 469 kts | 351° |
| 2026-04-23 22:58 | 43.03966 | -3.76118 | 38024 ft | 470 kts | 351° |
| 2026-04-23 22:58 | 43.10411 | -3.77230 | 38003 ft | 470 kts | 351° |
| 2026-04-23 22:59 | 43.16880 | -3.78347 | 38011 ft | 468 kts | 352° |
| 2026-04-23 22:59 | 43.23330 | -3.79463 | 38002 ft | 467 kts | 352° |
| 2026-04-23 23:00 | 43.29761 | -3.80578 | 37983 ft | 465 kts | 352° |
| 2026-04-23 23:00 | 43.36169 | -3.81692 | 38001 ft | 463 kts | 351° |
| 2026-04-23 23:01 | 43.42563 | -3.82806 | 37999 ft | 463 kts | 351° |
| 2026-04-23 23:01 | 43.48946 | -3.83920 | 37993 ft | 462 kts | 351° |
| 2026-04-23 23:02 | 43.55335 | -3.85038 | 37996 ft | 463 kts | 351° |
| 2026-04-23 23:02 | 43.61723 | -3.86158 | 37981 ft | 463 kts | 352° |
| 2026-04-23 23:03 | 43.68079 | -3.87274 | 37981 ft | 464 kts | 352° |
| 2026-04-23 23:03 | 43.74486 | -3.88402 | 37980 ft | 465 kts | 352° |
| 2026-04-23 23:04 | 43.80911 | -3.89536 | 37986 ft | 466 kts | 352° |
| 2026-04-23 23:04 | 43.87340 | -3.90672 | 37982 ft | 466 kts | 352° |
| 2026-04-23 23:05 | 43.93780 | -3.91813 | 37983 ft | 467 kts | 352° |
| 2026-04-23 23:05 | 44.00227 | -3.92944 | 37989 ft | 467 kts | 352° |
| 2026-04-23 23:06 | 44.06662 | -3.94166 | 37969 ft | 466 kts | 351° |
| 2026-04-23 23:06 | 44.13097 | -3.95284 | 37979 ft | 466 kts | 352° |
| 2026-04-23 23:07 | 44.19522 | -3.96400 | 37986 ft | 465 kts | 351° |
| 2026-04-23 23:07 | 44.25935 | -3.97547 | 37981 ft | 464 kts | 351° |
| 2026-04-23 23:08 | 44.32333 | -3.98687 | 37983 ft | 463 kts | 353° |
| 2026-04-23 23:08 | 44.38769 | -3.98849 | 37991 ft | 463 kts | 1° |
| 2026-04-23 23:09 | 44.45209 | -3.98504 | 37996 ft | 462 kts | 1° |
| 2026-04-23 23:09 | 44.51631 | -3.98170 | 37995 ft | 462 kts | 1° |
| 2026-04-23 23:10 | 44.58057 | -3.97903 | 38006 ft | 461 kts | 0° |
| 2026-04-23 23:10 | 44.64467 | -3.97671 | 38004 ft | 461 kts | 0° |
| 2026-04-23 23:11 | 44.70889 | -3.97445 | 38010 ft | 461 kts | 0° |
| 2026-04-23 23:11 | 44.77305 | -3.97217 | 38008 ft | 461 kts | 0° |
| 2026-04-23 23:12 | 44.83727 | -3.96987 | 38014 ft | 462 kts | 0° |
| 2026-04-23 23:12 | 44.90154 | -3.96755 | 38015 ft | 462 kts | 0° |
| 2026-04-23 23:13 | 44.96588 | -3.96523 | 38025 ft | 462 kts | 0° |
| 2026-04-23 23:13 | 45.03022 | -3.96290 | 38018 ft | 463 kts | 0° |
| 2026-04-23 23:14 | 45.09463 | -3.96056 | 38017 ft | 463 kts | 0° |
| 2026-04-23 23:14 | 45.15902 | -3.95822 | 38031 ft | 463 kts | 0° |
| 2026-04-23 23:15 | 45.22341 | -3.95587 | 38021 ft | 463 kts | 0° |
| 2026-04-23 23:15 | 45.28770 | -3.95352 | 38029 ft | 462 kts | 0° |
| 2026-04-23 23:16 | 45.35199 | -3.95117 | 38037 ft | 461 kts | 1° |
| 2026-04-23 23:16 | 45.41614 | -3.94882 | 38032 ft | 461 kts | 1° |
| 2026-04-23 23:17 | 45.48016 | -3.94646 | 38034 ft | 460 kts | 0° |
| 2026-04-23 23:17 | 45.54408 | -3.94410 | 38041 ft | 459 kts | 1° |
| 2026-04-23 23:18 | 45.60793 | -3.94174 | 38038 ft | 458 kts | 1° |
| 2026-04-23 23:18 | 45.67117 | -3.93940 | 38046 ft | 457 kts | 1° |
| 2026-04-23 23:19 | 45.73478 | -3.93704 | 38053 ft | 457 kts | 1° |
| 2026-04-23 23:19 | 45.79828 | -3.93468 | 38049 ft | 456 kts | 1° |
| 2026-04-23 23:20 | 45.86164 | -3.93232 | 38047 ft | 455 kts | 1° |
| 2026-04-23 23:20 | 45.92485 | -3.92995 | 38053 ft | 454 kts | 1° |
| 2026-04-23 23:21 | 45.98839 | -3.92757 | 38059 ft | 453 kts | 1° |
| 2026-04-23 23:21 | 46.05143 | -3.92521 | 38058 ft | 453 kts | 0° |
| 2026-04-23 23:22 | 46.11398 | -3.92286 | 38067 ft | 453 kts | 0° |
| 2026-04-23 23:22 | 46.17697 | -3.92048 | 38065 ft | 453 kts | 0° |
| 2026-04-23 23:23 | 46.24011 | -3.91810 | 38073 ft | 453 kts | 0° |
| 2026-04-23 23:23 | 46.30366 | -3.91569 | 38079 ft | 454 kts | 1° |
| 2026-04-23 23:24 | 46.36681 | -3.91329 | 38082 ft | 454 kts | 1° |
| 2026-04-23 23:24 | 46.41939 | -3.91129 | 38070 ft | 455 kts | 0° |
| 2026-04-23 23:25 | 46.49298 | -3.90848 | 38071 ft | 455 kts | 1° |
| 2026-04-23 23:25 | 46.54602 | -3.90645 | 38072 ft | 455 kts | 0° |
| 2026-04-23 23:26 | 46.60931 | -3.90403 | 38092 ft | 455 kts | 1° |
| 2026-04-23 23:26 | 46.67258 | -3.90076 | 38084 ft | 455 kts | 2° |
| 2026-04-23 23:27 | 46.73574 | -3.89816 | 38099 ft | 453 kts | 359° |
| 2026-04-23 23:27 | 46.79882 | -3.89757 | 38095 ft | 453 kts | 1° |
| 2026-04-23 23:28 | 46.86187 | -3.89487 | 38090 ft | 453 kts | 0° |
| 2026-04-23 23:28 | 46.92485 | -3.89145 | 38092 ft | 453 kts | 1° |
| 2026-04-23 23:29 | 46.98783 | -3.88883 | 38079 ft | 453 kts | 1° |
| 2026-04-23 23:29 | 47.05080 | -3.88663 | 38095 ft | 453 kts | 1° |
| 2026-04-23 23:30 | 47.11360 | -3.88352 | 38116 ft | 452 kts | 0° |
| 2026-04-23 23:30 | 47.17657 | -3.88189 | 38119 ft | 452 kts | 1° |
| 2026-04-23 23:31 | 47.23943 | -3.87999 | 38127 ft | 452 kts | 359° |
| 2026-04-23 23:31 | 47.30236 | -3.87796 | 38111 ft | 452 kts | 1° |
| 2026-04-23 23:32 | 47.36523 | -3.87380 | 38109 ft | 452 kts | 1° |
| 2026-04-23 23:32 | 47.42811 | -3.87211 | 38111 ft | 452 kts | 359° |
| 2026-04-23 23:33 | 47.49096 | -3.87003 | 38126 ft | 452 kts | 2° |
| 2026-04-23 23:33 | 47.55369 | -3.86583 | 38135 ft | 451 kts | 1° |
| 2026-04-23 23:34 | 47.61640 | -3.86548 | 38137 ft | 450 kts | 357° |
| 2026-04-23 23:34 | 47.67897 | -3.86408 | 38137 ft | 450 kts | 1° |
| 2026-04-23 23:35 | 47.74154 | -3.85984 | 38173 ft | 450 kts | 4° |
| 2026-04-23 23:35 | 47.80404 | -3.85612 | 38157 ft | 449 kts | 359° |
| 2026-04-23 23:36 | 47.86660 | -3.85473 | 38151 ft | 450 kts | 0° |
| 2026-04-23 23:36 | 47.92919 | -3.85234 | 38161 ft | 449 kts | 0° |
| 2026-04-23 23:37 | 47.99165 | -3.84933 | 38167 ft | 449 kts | 1° |
| 2026-04-23 23:37 | 48.05412 | -3.84674 | 38157 ft | 448 kts | 0° |
| 2026-04-23 23:38 | 48.11641 | -3.84443 | 38160 ft | 447 kts | 0° |
| 2026-04-23 23:38 | 48.17852 | -3.84213 | 38176 ft | 446 kts | 359° |
| 2026-04-23 23:39 | 48.24047 | -3.84001 | 38169 ft | 444 kts | 0° |
| 2026-04-23 23:39 | 48.30216 | -3.83703 | 38168 ft | 442 kts | 0° |
| 2026-04-23 23:40 | 48.36356 | -3.83442 | 38177 ft | 440 kts | 0° |
| 2026-04-23 23:40 | 48.42464 | -3.83064 | 38187 ft | 438 kts | 0° |
| 2026-04-23 23:41 | 48.48549 | -3.82879 | 38182 ft | 436 kts | 360° |
| 2026-04-23 23:41 | 48.54608 | -3.82685 | 38187 ft | 435 kts | 0° |
| 2026-04-23 23:42 | 48.60663 | -3.82445 | 38203 ft | 435 kts | 0° |
| 2026-04-23 23:42 | 48.66700 | -3.82174 | 38196 ft | 434 kts | 1° |
| 2026-04-23 23:43 | 48.72742 | -3.81872 | 38204 ft | 434 kts | 1° |
| 2026-04-23 23:43 | 48.78784 | -3.81699 | 38197 ft | 434 kts | 359° |
| 2026-04-23 23:44 | 48.84829 | -3.81485 | 38214 ft | 435 kts | 1° |
| 2026-04-23 23:44 | 48.90894 | -3.81191 | 38200 ft | 437 kts | 359° |
| 2026-04-23 23:45 | 48.96975 | -3.80949 | 38204 ft | 438 kts | 1° |
| 2026-04-23 23:45 | 49.03068 | -3.80600 | 38218 ft | 439 kts | 2° |
| 2026-04-23 23:46 | 49.09176 | -3.80199 | 38217 ft | 439 kts | 359° |
| 2026-04-23 23:46 | 49.15293 | -3.79776 | 38208 ft | 440 kts | 0° |
| 2026-04-23 23:47 | 49.21405 | -3.79517 | 38221 ft | 440 kts | 358° |
| 2026-04-23 23:47 | 49.27532 | -3.79100 | 38248 ft | 440 kts | 1° |
| 2026-04-23 23:48 | 49.33649 | -3.78743 | 38223 ft | 440 kts | 1° |
| 2026-04-23 23:48 | 49.39743 | -3.78209 | 38276 ft | 438 kts | 1° |
| 2026-04-23 23:49 | 49.48886 | -3.77752 | 38228 ft | 437 kts | 359° |
| 2026-04-23 23:49 | 49.54959 | -3.77327 | 38230 ft | 437 kts | 2° |
| 2026-04-23 23:50 | 49.61028 | -3.77026 | 38254 ft | 436 kts | 4° |
| 2026-04-23 23:50 | 49.67089 | -3.76649 | 38251 ft | 436 kts | 0° |
| 2026-04-23 23:51 | 49.73141 | -3.76148 | 38289 ft | 436 kts | 2° |
| 2026-04-23 23:51 | 49.79196 | -3.75462 | 38263 ft | 437 kts | 4° |
| 2026-04-23 23:52 | 49.85252 | -3.74572 | 38255 ft | 437 kts | 3° |
| 2026-04-23 23:52 | 49.91321 | -3.73901 | 38286 ft | 437 kts | 2° |
| 2026-04-23 23:53 | 49.97392 | -3.73196 | 38272 ft | 438 kts | 2° |
| 2026-04-23 23:53 | 50.03467 | -3.72300 | 38264 ft | 439 kts | 5° |
| 2026-04-23 23:54 | 50.09546 | -3.71693 | 38281 ft | 438 kts | 3° |
| 2026-04-23 23:54 | 50.15634 | -3.71063 | 38309 ft | 438 kts | 2° |
| 2026-04-23 23:55 | 50.21721 | -3.70312 | 38294 ft | 439 kts | 2° |
| 2026-04-23 23:55 | 50.27774 | -3.69594 | 38297 ft | 439 kts | 5° |
| 2026-04-23 23:56 | 50.33862 | -3.68715 | 38323 ft | 439 kts | 2° |
| 2026-04-23 23:56 | 50.39953 | -3.68073 | 38318 ft | 439 kts | 2° |
| 2026-04-23 23:57 | 50.46023 | -3.67101 | 38337 ft | 438 kts | 5° |
| 2026-04-23 23:57 | 50.52059 | -3.65903 | 38319 ft | 437 kts | 6° |
| 2026-04-23 23:58 | 50.58072 | -3.64732 | 38335 ft | 435 kts | 4° |
| 2026-04-23 23:58 | 50.64071 | -3.63570 | 38321 ft | 434 kts | 5° |
| 2026-04-23 23:59 | 50.70071 | -3.62472 | 38327 ft | 434 kts | 6° |
| 2026-04-23 23:59 | 50.76060 | -3.61313 | 38327 ft | 433 kts | 6° |
| 2026-04-24 00:00 | 50.82043 | -3.60148 | 38331 ft | 433 kts | 6° |
| 2026-04-24 00:00 | 50.88016 | -3.58925 | 38313 ft | 432 kts | 5° |
| 2026-04-24 00:01 | 50.93978 | -3.57811 | 38353 ft | 431 kts | 6° |
| 2026-04-24 00:01 | 50.99936 | -3.56669 | 38336 ft | 431 kts | 5° |
| 2026-04-24 00:02 | 51.05886 | -3.55656 | 38329 ft | 430 kts | 5° |
| 2026-04-24 00:02 | 51.11803 | -3.54286 | 38336 ft | 429 kts | 6° |
| 2026-04-24 00:03 | 51.17741 | -3.53143 | 38346 ft | 430 kts | 4° |
| 2026-04-24 00:03 | 51.23676 | -3.51945 | 38349 ft | 430 kts | 5° |
| 2026-04-24 00:04 | 51.29628 | -3.50864 | 38362 ft | 430 kts | 4° |
| 2026-04-24 00:04 | 51.35545 | -3.49763 | 38353 ft | 431 kts | 5° |
| 2026-04-24 00:05 | 51.41506 | -3.48568 | 38347 ft | 432 kts | 7° |
| 2026-04-24 00:05 | 51.47470 | -3.47387 | 38353 ft | 432 kts | 5° |
| 2026-04-24 00:06 | 51.53329 | -3.46161 | 38323 ft | 411 kts | 5° |
| 2026-04-24 00:06 | 51.56118 | -3.45734 | 38328 ft | 396 kts | 4° |
| 2026-04-24 00:06 | 51.58810 | -3.45169 | 38335 ft | 385 kts | 8° |
| 2026-04-24 00:07 | 51.64132 | -3.44026 | 38384 ft | 389 kts | 5° |
| 2026-04-24 00:07 | 51.69580 | -3.43010 | 38359 ft | 399 kts | 5° |
| 2026-04-24 00:08 | 51.74181 | -3.42074 | 38399 ft | 404 kts | 5° |
| 2026-04-24 00:08 | 51.79832 | -3.40973 | 38398 ft | 408 kts | 5° |
| 2026-04-24 00:09 | 51.85373 | -3.39835 | 38203 ft | 398 kts | 7° |
| 2026-04-24 00:09 | 51.88103 | -3.39226 | 37398 ft | 398 kts | 6° |
| 2026-04-24 00:09 | 51.90915 | -3.38670 | 36324 ft | 405 kts | 5° |
| 2026-04-24 00:10 | 51.93677 | -3.38185 | 35596 ft | 403 kts | 3° |
| 2026-04-24 00:10 | 51.96452 | -3.37911 | 35070 ft | 396 kts | 1° |
| 2026-04-24 00:10 | 51.99221 | -3.37730 | 34583 ft | 389 kts | 1° |
| 2026-04-24 00:10 | 52.01867 | -3.37542 | 34044 ft | 383 kts | 2° |
| 2026-04-24 00:11 | 52.04514 | -3.37356 | 33413 ft | 378 kts | 3° |
| 2026-04-24 00:11 | 52.07123 | -3.37085 | 32777 ft | 374 kts | 1° |
| 2026-04-24 00:11 | 52.09713 | -3.37030 | 32152 ft | 371 kts | 0° |
| 2026-04-24 00:11 | 52.12274 | -3.36891 | 31570 ft | 367 kts | 2° |
| 2026-04-24 00:12 | 52.14806 | -3.36668 | 31016 ft | 362 kts | 2° |
| 2026-04-24 00:12 | 52.17311 | -3.36459 | 30453 ft | 359 kts | 2° |
| 2026-04-24 00:12 | 52.19793 | -3.36274 | 29790 ft | 355 kts | 2° |
| 2026-04-24 00:12 | 52.22250 | -3.36100 | 29115 ft | 352 kts | 2° |
| 2026-04-24 00:13 | 52.24687 | -3.35921 | 28457 ft | 349 kts | 4° |
| 2026-04-24 00:13 | 52.27101 | -3.35712 | 27851 ft | 345 kts | 3° |
| 2026-04-24 00:13 | 52.29493 | -3.35552 | 27215 ft | 343 kts | 3° |
| 2026-04-24 00:13 | 52.31863 | -3.35403 | 26711 ft | 337 kts | 3° |
| 2026-04-24 00:14 | 52.34184 | -3.35253 | 26318 ft | 330 kts | 4° |
| 2026-04-24 00:14 | 52.36452 | -3.35099 | 25962 ft | 323 kts | 4° |
| 2026-04-24 00:14 | 52.38670 | -3.34944 | 25625 ft | 317 kts | 4° |
| 2026-04-24 00:14 | 52.40877 | -3.34788 | 25303 ft | 319 kts | 4° |
| 2026-04-24 00:15 | 52.43145 | -3.34624 | 25000 ft | 335 kts | 4° |
| 2026-04-24 00:15 | 52.45495 | -3.34455 | 24603 ft | 338 kts | 4° |
| 2026-04-24 00:15 | 52.47842 | -3.34284 | 24226 ft | 337 kts | 5° |
| 2026-04-24 00:15 | 52.50179 | -3.34104 | 23861 ft | 335 kts | 5° |
| 2026-04-24 00:16 | 52.52497 | -3.33922 | 23450 ft | 333 kts | 5° |
| 2026-04-24 00:16 | 52.54805 | -3.33741 | 23096 ft | 330 kts | 5° |
| 2026-04-24 00:16 | 52.57089 | -3.33563 | 22753 ft | 327 kts | 5° |
| 2026-04-24 00:16 | 52.59358 | -3.33385 | 22368 ft | 326 kts | 5° |
| 2026-04-24 00:17 | 52.61620 | -3.33209 | 21957 ft | 324 kts | 5° |
| 2026-04-24 00:17 | 52.63828 | -3.32719 | 21404 ft | 318 kts | 19° |
| 2026-04-24 00:17 | 52.65903 | -3.31482 | 20786 ft | 317 kts | 23° |
| 2026-04-24 00:17 | 52.67931 | -3.30207 | 20546 ft | 304 kts | 23° |
| 2026-04-24 00:18 | 52.69871 | -3.29042 | 20426 ft | 289 kts | 22° |
| 2026-04-24 00:18 | 52.71707 | -3.27937 | 20397 ft | 272 kts | 22° |
| 2026-04-24 00:18 | 52.73429 | -3.26890 | 20380 ft | 256 kts | 22° |
| 2026-04-24 00:18 | 52.75098 | -3.25888 | 20096 ft | 254 kts | 22° |
| 2026-04-24 00:19 | 52.76755 | -3.24897 | 19710 ft | 253 kts | 22° |
| 2026-04-24 00:19 | 52.78413 | -3.23905 | 19240 ft | 256 kts | 22° |
| 2026-04-24 00:19 | 52.80156 | -3.22861 | 18185 ft | 280 kts | 22° |
| 2026-04-24 00:19 | 52.82067 | -3.21714 | 17015 ft | 304 kts | 22° |
| 2026-04-24 00:20 | 52.84085 | -3.20523 | 16268 ft | 310 kts | 22° |
| 2026-04-24 00:20 | 52.86110 | -3.19307 | 15756 ft | 308 kts | 22° |
| 2026-04-24 00:20 | 52.88113 | -3.18101 | 15287 ft | 304 kts | 24° |
| 2026-04-24 00:20 | 52.89888 | -3.16314 | 14772 ft | 297 kts | 47° |
| 2026-04-24 00:21 | 52.91268 | -3.13824 | 14409 ft | 290 kts | 51° |
| 2026-04-24 00:21 | 52.92582 | -3.11316 | 13937 ft | 287 kts | 51° |
| 2026-04-24 00:21 | 52.93893 | -3.08793 | 13253 ft | 291 kts | 51° |
| 2026-04-24 00:21 | 52.95221 | -3.06237 | 12668 ft | 292 kts | 51° |
| 2026-04-24 00:22 | 52.96546 | -3.03694 | 12163 ft | 290 kts | 50° |
| 2026-04-24 00:22 | 52.97872 | -3.01198 | 11648 ft | 288 kts | 51° |
| 2026-04-24 00:22 | 52.99202 | -2.98702 | 11096 ft | 289 kts | 50° |
| 2026-04-24 00:22 | 53.00517 | -2.96195 | 10620 ft | 287 kts | 50° |
| 2026-04-24 00:23 | 53.01812 | -2.93700 | 10161 ft | 284 kts | 50° |
| 2026-04-24 00:23 | 53.03096 | -2.91225 | 9649 ft | 282 kts | 50° |
| 2026-04-24 00:23 | 53.04373 | -2.88770 | 9157 ft | 280 kts | 50° |
| 2026-04-24 00:23 | 53.05624 | -2.86370 | 8694 ft | 277 kts | 50° |
| 2026-04-24 00:24 | 53.06880 | -2.83960 | 8222 ft | 275 kts | 50° |
| 2026-04-24 00:24 | 53.08145 | -2.81535 | 7749 ft | 273 kts | 50° |
| 2026-04-24 00:24 | 53.09365 | -2.79193 | 7307 ft | 270 kts | 50° |
| 2026-04-24 00:24 | 53.10608 | -2.76808 | 6854 ft | 268 kts | 51° |
| 2026-04-24 00:25 | 53.11807 | -2.74504 | 6394 ft | 266 kts | 51° |
| 2026-04-24 00:25 | 53.13013 | -2.72186 | 5927 ft | 264 kts | 51° |
| 2026-04-24 00:25 | 53.14208 | -2.69887 | 5498 ft | 261 kts | 51° |
| 2026-04-24 00:25 | 53.15363 | -2.67667 | 5370 ft | 248 kts | 52° |
| 2026-04-24 00:26 | 53.16468 | -2.65538 | 5309 ft | 238 kts | 52° |
| 2026-04-24 00:26 | 53.17567 | -2.63527 | 5191 ft | 233 kts | 46° |
| 2026-04-24 00:26 | 53.18777 | -2.61739 | 4951 ft | 231 kts | 49° |
| 2026-04-24 00:26 | 53.19797 | -2.59775 | 4905 ft | 221 kts | 54° |
| 2026-04-24 00:27 | 53.20747 | -2.57791 | 4639 ft | 216 kts | 55° |
| 2026-04-24 00:27 | 53.21671 | -2.55854 | 4360 ft | 210 kts | 55° |
| 2026-04-24 00:27 | 53.22550 | -2.53997 | 4063 ft | 198 kts | 54° |
| 2026-04-24 00:27 | 53.23383 | -2.52248 | 3801 ft | 187 kts | 54° |
| 2026-04-24 00:28 | 53.24206 | -2.50636 | 3554 ft | 178 kts | 52° |
| 2026-04-24 00:28 | 53.24957 | -2.49074 | 3324 ft | 168 kts | 55° |
| 2026-04-24 00:28 | 53.25666 | -2.47588 | 3089 ft | 162 kts | 52° |
| 2026-04-24 00:28 | 53.26577 | -2.46433 | 2854 ft | 167 kts | 29° |
| 2026-04-24 00:29 | 53.27650 | -2.45676 | 2770 ft | 169 kts | 27° |
| 2026-04-24 00:29 | 53.28748 | -2.44905 | 2528 ft | 173 kts | 26° |
| 2026-04-24 00:29 | 53.29785 | -2.44191 | 2446 ft | 144 kts | 34° |
| 2026-04-24 00:29 | 53.30421 | -2.43139 | 2281 ft | 126 kts | 68° |
| 2026-04-24 00:30 | 53.30639 | -2.41724 | 2071 ft | 127 kts | 86° |
| 2026-04-24 00:30 | 53.30721 | -2.40236 | 1887 ft | 130 kts | 89° |
| 2026-04-24 00:30 | 53.30763 | -2.38714 | 1744 ft | 133 kts | 90° |
| 2026-04-24 00:30 | 53.30843 | -2.37162 | 1578 ft | 136 kts | 73° |
| 2026-04-24 00:31 | 53.31366 | -2.35807 | 1389 ft | 143 kts | 51° |
| 2026-04-24 00:31 | 53.31999 | -2.34527 | 1202 ft | 142 kts | 53° |
| 2026-04-24 00:31 | 53.32622 | -2.33266 | 975 ft | 139 kts | 52° |
| 2026-04-24 00:31 | 53.33203 | -2.31978 | 672 ft | 138 kts | 54° |
| 2026-04-24 00:32 | 53.33815 | -2.30724 | 523 ft | 141 kts | 51° |
| 2026-04-24 00:32 | 53.34420 | -2.29478 | 363 ft | 135 kts | 51° |
| 2026-04-24 00:32 | 53.34996 | -2.28281 | 234 ft | 124 kts | 50° |
| 2026-04-24 00:32 | 53.35443 | -2.27355 | 246 ft | 80 kts | 51° |
| 2026-04-24 00:33 | 53.35696 | -2.26832 | 265 ft | 33 kts | 51° |
| 2026-04-24 00:33 | 53.35741 | -2.26738 | 268 ft | 8 kts | 51° |
| 2026-04-24 00:33 | 53.35850 | -2.26688 | 265 ft | 23 kts | 350° |
| 2026-04-24 00:33 | 53.35916 | -2.26763 | 254 ft | 0 kts | 278° |
| 2026-04-24 00:34 | 53.35915 | -2.26793 | 254 ft | 5 kts | 266° |
| 2026-04-24 00:34 | 53.35897 | -2.26843 | 254 ft | 6 kts | 234° |
| 2026-04-24 00:35 | 53.35860 | -2.26926 | 254 ft | 12 kts | 231° |
| 2026-04-24 00:35 | 53.35813 | -2.27053 | 254 ft | 14 kts | 236° |
| 2026-04-24 00:35 | 53.35799 | -2.27087 | 254 ft | 6 kts | 237° |
| 2026-04-24 00:35 | 53.35841 | -2.27210 | 254 ft | 20 kts | 339° |
| 2026-04-24 00:36 | 53.35983 | -2.27240 | 254 ft | 12 kts | 359° |
| 2026-04-24 00:36 | 53.36038 | -2.27205 | 254 ft | 9 kts | 75° |
| 2026-04-24 00:36 | 53.36045 | -2.27156 | 254 ft | 2 kts | 69° |
| 2026-04-24 00:36 | 53.36049 | -2.27141 | 254 ft | 0 kts | 71° |